Disclaimer

Please do not use the information listed here in-flight or in-navigation, as they are not provided to us by the airports but are provided by volunteers, so they might be outdated.

Search


Regions


Airport information page

Radio informations:
Tower (TWR) - 119.1 MHz

Airport informations:
Latitude: 26° 12' 45.80" S
Longitude: 058° 13' 41.20" W
Elevation: 194 feet - 59 meters
Operating hours: Remarks
Operating agency: Civil government, landing fees and diplomatic clearance may be required
Timezone: UTC-3
Fuel: Jet A1, without icing nhibitor.

100/130 MIL Spec, low lead, aviation gasoline (BLUE)

Runway information:
04/22 - 5905 x 100 feet< - >1800 x 30 meters

Recent METARs:
SARF 211700Z 05010KT 9999 FEW025 33/19 Q1011
SARF 211700Z 05010KT 9999 FEW025 33/19 Q1011
SARF 211800Z 05016KT 9999 FEW025 33/18 Q1010

Airport on the map: